Hancock County-Bar Harbor Airport Bar Harbor US
ICAO: KBHB
IATA: BHB
Category: Medium
Scheduled Services: Yes

Elevation: 83 ft
TransAlt. 18000 ft.

Airport Communications:
BANGOR APP/DEP:124.5
AWOS 3:118.025
CLNC DEL:119.9
CTAF/UNICOM:123

KBHB Zoom In..

If you have problems with the map follow the link
https://www.worldairports.se/pages/airport.php?
ICAO=KBHB

Runways:

(A) RW 04 length 5200 ft width 100 ft
---- / hdg 44

(B) RW 17 length 3253 ft width 75 ft
---- / hdg 169

(C) RW 22 length 5200 ft width 100 ft
ILS 108.30 / hdg 224

(D) RW 35 length 3253 ft width 75 ft
---- / hdg 349

Location; KBHB
Day. 20 / Time. 20.56 Zulu
* Altimeter: 30.44
* Temperature: -05° c. -23°f.
* Wind from: 280° Speed 04 kn.
Dewpoint: -16° c.
Visibility: 10 Statute Miles.
Clouds: Clear (automated report).

KBHB 202056Z AUTO 28004KT 10SM CLR M05/M16 A3044 RMK AO2 SLP311 T10501161 56012 FZRANO


Wind From 280°
Speed 04 kn.

 
 
jpsmedia.com for Web Design worldairports.se 2019   terms of use